Time;durP1;ratioP1;P1;durP2;ratioP2;P2;SDS_P1;SDS_P2;PMS_P1;PMS_P2;Temp;Humidity;BMP_temperature;BMP_pressure;BME280_temperature;BME280_humidity;BME280_pressure;Samples;Min_cycle;Max_cycle;Signal;HPM_P1;HPM_P2
2022/07/16 00:02:18;;;;;;;5.55;1.52;;;;;;;12.42;62.30;100899.53;1777112;80;21044;-78
2022/07/16 00:04:45;;;;;;;4.22;1.40;;;;;;;12.44;62.29;100895.94;1776852;80;21450;-78
2022/07/16 00:07:12;;;;;;;4.53;1.92;;;;;;;12.47;62.34;100894.51;1776704;79;22001;-78
2022/07/16 00:09:39;;;;;;;3.10;1.50;;;;;;;12.46;62.31;100888.83;1759128;79;21456;-78
2022/07/16 00:12:06;;;;;;;3.90;1.82;;;;;;;12.45;62.24;100889.75;1765801;79;21517;-78
2022/07/16 00:14:33;;;;;;;3.58;1.50;;;;;;;12.42;62.48;100889.02;1762737;80;21089;-78
2022/07/16 00:17:01;;;;;;;4.65;1.30;;;;;;;12.41;62.55;100885.97;1762491;80;21478;-78
2022/07/16 00:19:28;;;;;;;3.58;1.57;;;;;;;12.45;62.57;100886.27;1776829;79;21506;-78
2022/07/16 00:21:57;;;;;;;5.42;2.08;;;;;;;12.43;62.57;100883.69;1776746;79;21525;-78
2022/07/16 00:24:25;;;;;;;3.30;1.43;;;;;;;12.42;62.65;100889.02;1776720;80;21004;-78
2022/07/16 00:26:53;;;;;;;5.05;1.60;;;;;;;12.39;62.72;100889.98;1766907;78;21506;-78
2022/07/16 00:29:21;;;;;;;4.33;1.85;;;;;;;12.35;62.65;100889.69;1765616;80;21060;-78
2022/07/16 00:31:50;;;;;;;6.47;1.85;;;;;;;12.35;62.95;100883.57;1776729;80;21115;-78
2022/07/16 00:34:18;;;;;;;3.12;1.40;;;;;;;12.34;62.93;100883.19;1776690;80;21016;-78
2022/07/16 00:36:45;;;;;;;6.75;1.60;;;;;;;12.33;63.03;100874.41;1776947;80;21448;-78
2022/07/16 00:39:13;;;;;;;5.70;1.70;;;;;;;12.30;62.90;100885.05;1776940;80;21000;-78
2022/07/16 00:41:42;;;;;;;6.08;1.92;;;;;;;12.27;63.08;100870.70;1777162;80;21084;-78
2022/07/16 00:44:13;;;;;;;2.85;1.52;;;;;;;12.29;62.99;100867.57;1776713;80;21186;-78
2022/07/16 00:46:40;;;;;;;5.08;1.57;;;;;;;12.30;63.02;100867.95;1776942;79;21021;-78
2022/07/16 00:49:09;;;;;;;4.45;1.57;;;;;;;12.29;62.89;100868.88;1776783;79;20995;-78
2022/07/16 00:51:47;;;;;;;4.00;1.52;;;;;;;12.27;62.96;100864.98;1777177;79;20974;-78
2022/07/16 00:54:15;;;;;;;3.77;1.55;;;;;;;12.28;63.11;100861.92;1776740;80;21008;-78
2022/07/16 00:56:43;;;;;;;4.67;1.50;;;;;;;12.28;63.13;100861.92;1777074;79;21080;-78
2022/07/16 00:59:13;;;;;;;4.90;1.90;;;;;;;12.33;62.97;100857.33;1776709;80;20921;-77
2022/07/16 01:01:40;;;;;;;5.45;1.67;;;;;;;12.34;63.21;100853.80;1750849;80;21241;-77
2022/07/16 01:04:10;;;;;;;3.45;1.27;;;;;;;12.34;63.15;100855.13;1774530;80;20973;-78
2022/07/16 01:06:37;;;;;;;4.83;1.98;;;;;;;12.37;63.06;100849.75;1777211;79;21521;-78
2022/07/16 01:09:06;;;;;;;4.85;1.45;;;;;;;12.40;62.86;100847.46;1766229;80;21908;-77
2022/07/16 01:11:33;;;;;;;5.92;1.67;;;;;;;12.40;62.79;100844.83;1776859;80;20977;-78
2022/07/16 01:14:02;;;;;;;3.58;1.37;;;;;;;12.38;62.78;100846.66;1766036;80;21013;-78
2022/07/16 01:16:30;;;;;;;3.85;1.50;;;;;;;12.35;62.73;100842.83;1777180;80;20977;-78
2022/07/16 01:18:57;;;;;;;5.90;1.27;;;;;;;12.34;62.89;100841.13;1776850;80;21005;-78
2022/07/16 01:21:23;;;;;;;3.10;1.30;;;;;;;12.40;62.77;100841.74;1777226;80;21078;-78
2022/07/16 01:23:50;;;;;;;5.22;1.15;;;;;;;12.48;62.95;100838.37;1776820;80;20969;-78
2022/07/16 01:26:17;;;;;;;6.20;1.47;;;;;;;12.54;62.77;100843.00;1768822;80;21705;-78
2022/07/16 01:28:44;;;;;;;6.85;1.87;;;;;;;12.57;62.66;100840.25;1763048;80;21550;-78
2022/07/16 01:31:12;;;;;;;7.22;1.60;;;;;;;12.60;62.58;100834.41;1760565;80;21601;-78
2022/07/16 01:33:42;;;;;;;3.75;1.40;;;;;;;12.61;62.33;100832.63;1760826;80;21098;-78
2022/07/16 01:36:13;;;;;;;9.88;1.92;;;;;;;12.65;62.34;100834.23;1782205;79;21040;-78
2022/07/16 01:38:44;;;;;;;6.22;1.60;;;;;;;12.66;62.29;100822.79;1779905;79;20960;-77
2022/07/16 01:41:13;;;;;;;4.25;1.40;;;;;;;12.64;62.08;100824.65;1774084;80;21028;-78
2022/07/16 01:43:41;;;;;;;4.45;1.72;;;;;;;12.64;62.13;100828.12;1768442;80;21059;-78
2022/07/16 01:46:08;;;;;;;3.27;1.30;;;;;;;12.66;62.22;100830.22;1774512;79;21109;-77
2022/07/16 01:48:35;;;;;;;3.95;1.47;;;;;;;12.71;62.27;100823.01;1760262;79;21051;-78
2022/07/16 01:51:02;;;;;;;3.85;1.70;;;;;;;12.75;62.26;100827.72;1782247;80;21028;-78
2022/07/16 01:53:29;;;;;;;4.97;1.52;;;;;;;12.77;62.29;100832.89;1782011;80;21016;-78
2022/07/16 01:55:58;;;;;;;6.75;1.57;;;;;;;12.79;62.20;100822.72;1772792;80;21109;-77
2022/07/16 01:58:26;;;;;;;5.53;1.62;;;;;;;12.82;62.27;100822.59;1763337;80;21295;-78
2022/07/16 02:00:53;;;;;;;4.53;1.80;;;;;;;12.86;62.23;100820.72;1771247;80;21003;-77
2022/07/16 02:03:21;;;;;;;2.90;1.40;;;;;;;12.89;62.19;100814.02;1781986;80;21017;-77
2022/07/16 02:05:48;;;;;;;6.05;1.37;;;;;;;12.88;62.16;100812.28;1782032;79;21012;-78
2022/07/16 02:08:16;;;;;;;4.25;1.98;;;;;;;12.88;62.03;100813.13;1782277;80;21043;-78
2022/07/16 02:10:43;;;;;;;3.55;1.75;;;;;;;12.84;62.03;100803.66;1782087;79;21061;-78
2022/07/16 02:13:10;;;;;;;2.80;1.30;;;;;;;12.81;62.00;100798.53;1773424;79;21048;-78
2022/07/16 02:15:37;;;;;;;4.40;1.37;;;;;;;12.80;62.24;100793.31;1769660;79;21099;-78
2022/07/16 02:18:04;;;;;;;6.10;1.60;;;;;;;12.83;62.26;100791.88;1775973;80;21486;-78
2022/07/16 02:20:31;;;;;;;4.65;1.80;;;;;;;12.86;62.25;100796.58;1767142;79;20992;-77
2022/07/16 02:22:58;;;;;;;4.67;1.75;;;;;;;12.90;62.41;100793.36;1782401;79;21120;-78
2022/07/16 02:25:29;;;;;;;2.40;1.42;;;;;;;12.93;62.35;100790.59;1781911;79;21024;-78
2022/07/16 02:28:07;;;;;;;;;;;;;;;12.98;62.50;100787.33;1784703;80;21080;-78
2022/07/16 02:30:41;;;;;;;2.85;1.42;;;;;;;13.03;62.61;100791.09;1782079;80;20197;-78
2022/07/16 02:33:09;;;;;;;4.67;1.27;;;;;;;13.05;62.41;100787.91;1782291;80;21273;-78
2022/07/16 02:35:38;;;;;;;3.10;1.52;;;;;;;13.07;62.29;100784.30;1781979;79;21099;-78
2022/07/16 02:38:07;;;;;;;2.75;1.42;;;;;;;13.07;62.20;100786.09;1782177;80;20981;-78
2022/07/16 02:40:35;;;;;;;5.42;1.72;;;;;;;13.05;62.12;100783.97;1782143;79;21051;-78
2022/07/16 02:43:06;;;;;;;4.40;1.45;;;;;;;13.03;62.15;100785.83;1782131;80;21456;-78
2022/07/16 02:45:35;;;;;;;4.10;1.92;;;;;;;13.02;62.30;100786.73;1782160;80;21147;-78
2022/07/16 02:48:03;;;;;;;4.50;1.47;;;;;;;13.02;62.42;100786.73;1763966;80;21840;-78
2022/07/16 02:50:30;;;;;;;3.98;1.82;;;;;;;12.99;62.28;100791.66;1772753;80;21517;-78
2022/07/16 02:52:57;;;;;;;3.45;1.50;;;;;;;12.94;62.36;100784.41;1767216;80;21461;-77
2022/07/16 02:55:25;;;;;;;3.30;1.37;;;;;;;12.93;62.43;100781.39;1781884;79;21445;-78
2022/07/16 02:57:52;;;;;;;5.80;1.62;;;;;;;12.91;62.46;100781.47;1782257;79;21016;-78
2022/07/16 03:00:19;;;;;;;3.30;1.35;;;;;;;12.87;62.52;100781.17;1781939;80;21258;-78
2022/07/16 03:02:46;;;;;;;3.75;1.65;;;;;;;12.85;62.58;100779.52;1782234;80;21048;-78
2022/07/16 03:05:14;;;;;;;3.08;1.20;;;;;;;12.81;62.65;100779.27;1781909;79;21458;-78
2022/07/16 03:07:40;;;;;;;3.55;1.60;;;;;;;12.78;62.78;100788.13;1782292;80;21028;-78
2022/07/16 03:10:09;;;;;;;5.58;1.42;;;;;;;12.73;63.02;100784.36;1781906;80;21020;-78
2022/07/16 03:12:37;;;;;;;7.25;1.47;;;;;;;12.68;63.06;100777.11;1777611;79;21746;-78
2022/07/16 03:15:06;;;;;;;3.45;1.77;;;;;;;12.67;63.24;100779.81;1781971;80;21044;-78
2022/07/16 03:17:34;;;;;;;2.83;1.35;;;;;;;12.68;63.36;100782.37;1777798;79;20991;-78
2022/07/16 03:20:01;;;;;;;4.03;1.50;;;;;;;12.66;63.45;100781.56;1764903;80;20973;-78
2022/07/16 03:22:28;;;;;;;7.65;2.02;;;;;;;12.70;63.46;100785.80;1782169;80;21039;-78
2022/07/16 03:24:55;;;;;;;4.85;1.57;;;;;;;12.70;63.66;100781.00;1782004;79;21883;-78
2022/07/16 03:27:22;;;;;;;5.80;1.65;;;;;;;12.68;63.53;100784.14;1781349;78;21498;-77
2022/07/16 03:29:49;;;;;;;3.77;1.27;;;;;;;12.69;63.53;100780.59;1776602;79;21463;-78
2022/07/16 03:32:16;;;;;;;5.75;1.35;;;;;;;12.69;63.56;100781.90;1777013;80;21028;-78
2022/07/16 03:34:43;;;;;;;4.40;1.40;;;;;;;12.67;63.43;100781.98;1776706;80;20970;-78
2022/07/16 03:37:10;;;;;;;4.12;1.67;;;;;;;12.69;63.45;100780.16;1776970;80;21072;-78
2022/07/16 03:39:37;;;;;;;3.42;1.47;;;;;;;12.73;63.56;100780.88;1776644;80;21498;-78
2022/07/16 03:42:04;;;;;;;3.35;1.10;;;;;;;12.76;63.53;100783.38;1777015;80;21492;-78
2022/07/16 03:44:31;;;;;;;3.40;1.30;;;;;;;12.79;63.45;100781.94;1776754;79;20989;-78
2022/07/16 03:46:59;;;;;;;5.08;1.42;;;;;;;12.80;63.52;100781.02;1772042;79;21044;-78
2022/07/16 03:49:26;;;;;;;4.47;1.30;;;;;;;12.81;63.43;100784.52;1760356;80;21124;-78
2022/07/16 03:51:53;;;;;;;7.78;1.70;;;;;;;12.85;63.51;100783.47;1776638;79;20981;-78
2022/07/16 03:54:20;;;;;;;5.92;1.27;;;;;;;12.91;63.44;100784.53;1776674;79;21079;-78
2022/07/16 03:56:47;;;;;;;2.85;1.20;;;;;;;12.96;63.56;100790.47;1776708;80;20989;-78
2022/07/16 03:59:14;;;;;;;4.97;1.82;;;;;;;13.01;63.41;100792.45;1755447;79;21021;-78
2022/07/16 04:01:41;;;;;;;6.08;1.60;;;;;;;13.05;63.04;100790.11;1776625;80;21283;-78
2022/07/16 04:04:08;;;;;;;2.40;1.30;;;;;;;13.14;63.13;100792.36;1776855;80;21056;-78
2022/07/16 04:06:35;;;;;;;2.85;1.17;;;;;;;13.24;63.17;100791.50;1776639;80;21608;-78
2022/07/16 04:09:02;;;;;;;3.47;1.22;;;;;;;13.31;62.51;100788.20;1776895;80;21091;-78
2022/07/16 04:11:29;;;;;;;2.55;1.30;;;;;;;13.36;62.23;100783.13;1776762;80;21442;-78
2022/07/16 04:13:56;;;;;;;4.87;1.55;;;;;;;13.40;61.91;100778.58;1776820;80;21924;-78
2022/07/16 04:16:23;;;;;;;4.97;1.57;;;;;;;13.44;61.71;100781.94;1776617;80;21494;-78
2022/07/16 04:18:50;;;;;;;4.17;1.60;;;;;;;13.48;61.39;100777.80;1777065;80;21547;-78
2022/07/16 04:21:17;;;;;;;2.62;1.22;;;;;;;13.51;61.25;100782.08;1776672;79;21398;-78
2022/07/16 04:23:44;;;;;;;3.50;1.15;;;;;;;13.53;61.01;100774.97;1776041;80;21082;-78
2022/07/16 04:26:11;;;;;;;1.50;1.17;;;;;;;13.56;60.95;100781.42;1754752;80;21128;-78
2022/07/16 04:28:38;;;;;;;5.10;1.30;;;;;;;13.61;60.88;100779.45;1776751;80;21064;-78
2022/07/16 04:31:05;;;;;;;4.40;1.30;;;;;;;13.67;60.94;100782.27;1776620;79;20985;-78
2022/07/16 04:33:32;;;;;;;2.72;1.12;;;;;;;13.72;60.74;100773.72;1777032;79;20947;-78
2022/07/16 04:35:59;;;;;;;3.85;1.17;;;;;;;13.76;60.69;100773.95;1775895;79;22343;-78
2022/07/16 04:38:26;;;;;;;2.80;1.07;;;;;;;13.83;60.58;100768.36;1710315;83;21933;-78
2022/07/16 04:40:53;;;;;;;4.20;1.50;;;;;;;13.88;60.42;100769.45;1711653;82;21507;-78
2022/07/16 04:43:20;;;;;;;6.00;1.45;;;;;;;13.93;60.22;100769.25;1729622;82;21058;-78
2022/07/16 04:45:47;;;;;;;4.15;1.10;;;;;;;13.97;60.13;100768.20;1730618;82;21043;-78
2022/07/16 04:48:14;;;;;;;3.25;1.12;;;;;;;13.99;59.93;100765.86;1711149;82;21097;-78
2022/07/16 04:50:41;;;;;;;6.40;1.45;;;;;;;14.02;59.81;100763.55;1722624;83;21134;-78
2022/07/16 04:53:09;;;;;;;3.72;1.20;;;;;;;14.06;59.73;100765.98;1723269;82;21038;-78
2022/07/16 04:55:36;;;;;;;2.37;1.10;;;;;;;14.09;59.59;100765.00;1723048;83;21043;-78
2022/07/16 04:58:03;;;;;;;6.47;1.30;;;;;;;14.12;59.48;100767.48;1723504;83;21575;-78
2022/07/16 05:00:30;;;;;;;4.42;1.10;;;;;;;14.17;59.37;100765.97;1723051;83;21042;-78
2022/07/16 05:02:57;;;;;;;3.52;1.25;;;;;;;14.21;59.27;100764.89;1721803;82;21081;-78
2022/07/16 05:05:27;;;;;;;4.12;1.45;;;;;;;14.25;59.19;100757.24;1721317;81;21536;-78
2022/07/16 05:07:54;;;;;;;2.90;1.30;;;;;;;14.32;59.22;100756.48;1705001;83;21046;-78
2022/07/16 05:10:21;;;;;;;3.50;0.95;;;;;;;14.39;59.09;100757.92;1723136;83;22198;-78
2022/07/16 05:12:48;;;;;;;2.77;1.40;;;;;;;14.45;59.06;100761.11;1718129;83;21061;-82
2022/07/16 05:15:15;;;;;;;2.33;0.85;;;;;;;14.51;58.89;100756.85;1707875;83;21182;-77
2022/07/16 05:17:42;;;;;;;5.00;1.47;;;;;;;14.57;58.86;100754.89;1719186;83;20986;-77
2022/07/16 05:20:10;;;;;;;3.85;1.07;;;;;;;14.63;58.82;100755.91;1714489;83;22262;-77
2022/07/16 05:22:37;;;;;;;3.55;1.20;;;;;;;14.67;58.77;100747.78;1702345;83;21033;-78
2022/07/16 05:25:10;;;;;;;3.08;1.10;;;;;;;14.73;58.72;100750.11;1709324;82;21272;-79
2022/07/16 05:27:37;;;;;;;3.95;1.02;;;;;;;14.79;58.75;100756.02;1703268;82;21541;-78
2022/07/16 05:30:05;;;;;;;4.60;0.90;;;;;;;14.84;58.56;100745.63;1694416;83;21057;-82
2022/07/16 05:32:32;;;;;;;4.75;1.10;;;;;;;14.88;58.48;100745.89;1705003;83;21046;-79
2022/07/16 05:34:59;;;;;;;5.70;0.80;;;;;;;14.91;58.41;100747.52;1702010;83;21074;-80
2022/07/16 05:37:26;;;;;;;1.62;0.80;;;;;;;14.95;58.35;100741.99;1707375;83;21066;-81
2022/07/16 05:39:53;;;;;;;1.90;1.07;;;;;;;15.00;58.33;100745.73;1698370;83;22388;-80
2022/07/16 05:42:20;;;;;;;1.92;0.85;;;;;;;15.07;58.36;100736.56;1708223;81;21038;-81
2022/07/16 05:44:47;;;;;;;4.40;1.20;;;;;;;15.14;58.36;100737.12;1696671;81;21562;-79
2022/07/16 05:47:14;;;;;;;3.15;0.85;;;;;;;15.19;58.20;100740.39;1699205;83;21050;-80
2022/07/16 05:49:41;;;;;;;2.22;1.12;;;;;;;15.25;58.09;100733.94;1720617;83;21353;-77
2022/07/16 05:52:07;;;;;;;4.83;0.95;;;;;;;15.29;58.07;100736.80;1717740;81;21821;-79
2022/07/16 05:54:34;;;;;;;2.83;0.85;;;;;;;15.35;57.88;100740.00;1705311;83;21062;-79
2022/07/16 05:57:01;;;;;;;2.15;0.90;;;;;;;15.35;57.79;100729.43;1720325;83;21508;-79
2022/07/16 05:59:28;;;;;;;4.60;1.00;;;;;;;15.39;57.73;100732.28;1720400;83;21026;-80
2022/07/16 06:01:55;;;;;;;3.05;0.90;;;;;;;15.42;57.64;100731.28;1712452;81;21090;-80
2022/07/16 06:04:22;;;;;;;5.37;1.05;;;;;;;15.47;57.67;100727.08;1703702;83;21875;-80
2022/07/16 06:06:49;;;;;;;4.08;0.70;;;;;;;15.52;57.61;100731.19;1700946;83;21633;-78
2022/07/16 06:09:16;;;;;;;3.05;0.90;;;;;;;15.58;57.42;100728.70;1710028;83;21109;-81
2022/07/16 06:11:43;;;;;;;2.27;0.80;;;;;;;15.64;57.40;100727.05;1709657;83;21089;-75
2022/07/16 06:14:10;;;;;;;2.35;0.60;;;;;;;15.72;57.32;100725.36;1704413;83;21062;-75
2022/07/16 06:16:41;;;;;;;1.75;0.70;;;;;;;15.82;57.35;100728.75;1710801;83;21134;-81
2022/07/16 06:19:08;;;;;;;3.47;0.90;;;;;;;15.93;57.28;100716.25;1697165;83;21046;-76
2022/07/16 06:21:36;;;;;;;2.35;0.78;;;;;;;16.03;57.03;100718.78;1707859;83;21093;-76
2022/07/16 06:24:04;;;;;;;1.75;0.88;;;;;;;16.12;57.00;100720.07;1705029;83;21061;-78
2022/07/16 06:26:31;;;;;;;2.12;0.60;;;;;;;16.21;56.90;100714.30;1702268;83;21421;-76
2022/07/16 06:28:57;;;;;;;1.67;0.80;;;;;;;16.30;56.82;100716.05;1703702;81;22350;-76
2022/07/16 06:31:24;;;;;;;2.42;0.80;;;;;;;16.35;56.56;100709.55;1711129;83;21015;-75
2022/07/16 06:33:51;;;;;;;3.75;0.80;;;;;;;16.42;56.42;100708.73;1715043;83;21055;-75
2022/07/16 06:36:18;;;;;;;2.10;0.70;;;;;;;16.42;56.42;100708.73;1706159;83;21535;-77
2022/07/16 06:38:46;;;;;;;4.60;1.05;;;;;;;16.50;56.28;100703.86;1710703;83;21711;-76
2022/07/16 06:41:15;;;;;;;2.15;1.00;;;;;;;16.56;56.10;100700.86;1707916;81;21142;-75
2022/07/16 06:43:42;;;;;;;4.62;0.72;;;;;;;16.60;55.95;100705.05;1702942;81;21069;-76
2022/07/16 06:46:09;;;;;;;1.75;0.60;;;;;;;16.64;55.89;100694.66;1705061;81;21393;-76
2022/07/16 06:48:35;;;;;;;3.17;0.62;;;;;;;16.71;55.77;100702.64;1710139;81;22040;-76
2022/07/16 06:51:02;;;;;;;3.92;0.80;;;;;;;16.80;55.79;100700.43;1706618;83;21174;-76
2022/07/16 06:53:29;;;;;;;1.57;0.82;;;;;;;16.85;55.56;100701.87;1706549;81;22031;-75
2022/07/16 06:55:56;;;;;;;1.82;0.90;;;;;;;16.87;55.33;100702.61;1707316;83;21050;-77
2022/07/16 06:58:24;;;;;;;3.47;0.60;;;;;;;16.90;55.16;100700.25;1701998;83;21041;-76
2022/07/16 07:00:51;;;;;;;3.27;0.72;;;;;;;16.94;55.11;100700.47;1708419;83;21062;-76
2022/07/16 07:03:20;;;;;;;1.53;0.63;;;;;;;17.03;55.25;100699.92;1706750;83;21510;-75
2022/07/16 07:05:46;;;;;;;3.27;0.50;;;;;;;17.16;55.15;100698.73;1705780;81;21108;-76
2022/07/16 07:08:13;;;;;;;2.45;0.70;;;;;;;17.28;54.81;100690.03;1714234;81;20954;-76
2022/07/16 07:10:40;;;;;;;2.10;0.40;;;;;;;17.40;54.44;100680.48;1719122;83;21531;-76
2022/07/16 07:13:07;;;;;;;1.62;0.50;;;;;;;17.50;54.06;100686.93;1716731;83;21129;-76
2022/07/16 07:15:34;;;;;;;3.25;0.40;;;;;;;17.57;53.79;100675.02;1713609;83;21110;-77
2022/07/16 07:18:02;;;;;;;1.75;0.78;;;;;;;17.71;53.56;100668.86;1715665;83;21112;-75
2022/07/16 07:20:29;;;;;;;1.70;0.40;;;;;;;17.88;53.27;100672.28;1713448;82;21065;-75
2022/07/16 07:22:56;;;;;;;4.00;0.40;;;;;;;18.03;52.84;100667.31;1706811;81;21587;-75
2022/07/16 07:25:24;;;;;;;2.47;0.60;;;;;;;18.18;52.65;100670.77;1708692;81;21061;-75
2022/07/16 07:27:50;;;;;;;3.15;0.50;;;;;;;18.34;52.32;100669.31;1712180;81;21658;-76
2022/07/16 07:30:18;;;;;;;1.40;0.50;;;;;;;18.46;51.87;100664.55;1715322;82;21203;-76
2022/07/16 07:32:45;;;;;;;1.15;0.40;;;;;;;18.55;51.42;100660.44;1714245;83;20939;-76
2022/07/16 07:35:12;;;;;;;2.90;0.53;;;;;;;18.57;51.17;100659.38;1708912;83;21071;-76
2022/07/16 07:37:39;;;;;;;1.85;0.60;;;;;;;18.62;50.93;100662.59;1703584;83;21022;-76
2022/07/16 07:40:08;;;;;;;1.62;0.33;;;;;;;18.66;50.58;100673.36;1706114;83;21317;-75
2022/07/16 07:42:37;;;;;;;1.05;0.55;;;;;;;18.63;50.31;100666.94;1705438;83;21989;-77
2022/07/16 07:45:06;;;;;;;3.22;0.40;;;;;;;18.61;50.12;100659.54;1707296;83;21058;-77
2022/07/16 07:47:33;;;;;;;1.98;0.55;;;;;;;18.64;50.22;100658.00;1707595;81;22427;-76
2022/07/16 07:50:03;;;;;;;1.42;0.42;;;;;;;18.69;50.14;100658.55;1706865;83;21038;-75
2022/07/16 07:52:29;;;;;;;5.72;0.50;;;;;;;18.67;49.73;100666.24;1690841;82;21023;-75
2022/07/16 07:54:56;;;;;;;1.00;0.50;;;;;;;18.58;49.54;100657.09;1758433;80;21958;-76
2022/07/16 07:57:23;;;;;;;1.60;0.47;;;;;;;18.54;49.61;100656.05;1759727;80;20997;-76
2022/07/16 07:59:50;;;;;;;1.70;0.50;;;;;;;18.56;49.80;100643.55;1764217;80;21036;-77
2022/07/16 08:02:17;;;;;;;2.77;0.40;;;;;;;18.62;49.52;100645.78;1762263;80;21502;-76
2022/07/16 08:04:44;;;;;;;1.22;0.60;;;;;;;18.74;49.72;100643.69;1757854;80;21040;-76
2022/07/16 08:07:11;;;;;;;3.62;0.53;;;;;;;18.94;49.62;100631.70;1768422;80;21953;-76
2022/07/16 08:09:38;;;;;;;1.92;0.50;;;;;;;19.11;49.27;100633.20;1759790;80;21053;-77
2022/07/16 08:12:05;;;;;;;0.60;0.30;;;;;;;19.20;48.95;100636.53;1757239;80;21040;-77
2022/07/16 08:14:32;;;;;;;1.70;0.55;;;;;;;19.21;48.65;100623.64;1755622;80;21044;-78
2022/07/16 08:16:59;;;;;;;3.22;0.53;;;;;;;19.23;48.52;100624.84;1758608;80;21212;-75
2022/07/16 08:19:27;;;;;;;1.65;0.50;;;;;;;19.23;48.39;100624.36;1758400;80;21529;-77
2022/07/16 08:21:54;;;;;;;1.42;0.47;;;;;;;19.24;48.34;100619.44;1764793;80;21032;-77
2022/07/16 08:27:06;;;;;;;1.47;0.53;;;;;;;19.29;47.94;100626.62;1756601;80;21045;-76
2022/07/16 08:29:33;;;;;;;1.47;0.40;;;;;;;19.32;47.88;100616.25;1757787;79;21016;-78
2022/07/16 08:32:04;;;;;;;2.80;0.40;;;;;;;19.38;47.86;100602.52;1751621;80;21750;-76
2022/07/16 08:34:31;;;;;;;3.37;0.35;;;;;;;19.51;47.85;100606.47;1754653;80;21035;-76
2022/07/16 08:36:58;;;;;;;1.82;0.40;;;;;;;19.60;47.45;100599.19;1752863;80;21036;-79
2022/07/16 08:39:25;;;;;;;2.02;0.50;;;;;;;19.61;47.02;100599.55;1762380;80;20967;-83
2022/07/16 08:41:54;;;;;;;3.80;0.60;;;;;;;19.62;47.01;100601.27;1753677;80;21168;-80
2022/07/16 08:44:21;;;;;;;1.40;0.40;;;;;;;19.70;47.09;100593.59;1748476;80;21102;-84
2022/07/16 08:46:50;;;;;;;4.22;0.50;;;;;;;19.82;47.10;100598.53;1742828;80;21044;-79
2022/07/16 08:49:19;;;;;;;3.30;0.45;;;;;;;20.01;46.78;100590.91;1757821;79;21059;-79
2022/07/16 08:51:48;;;;;;;0.65;0.40;;;;;;;20.20;46.35;100601.05;1774248;80;21074;-77
2022/07/16 08:54:21;;;;;;;2.10;0.60;;;;;;;20.25;45.92;100604.19;1773860;79;21044;-78
2022/07/16 08:56:50;;;;;;;0.80;0.50;;;;;;;20.24;45.46;100599.84;1773743;80;21795;-77
2022/07/16 08:59:17;;;;;;;1.42;0.35;;;;;;;20.22;45.59;100612.41;1752758;80;21012;-80
2022/07/16 09:01:44;;;;;;;2.45;0.40;;;;;;;20.15;45.30;100600.53;1773597;80;21055;-76
2022/07/16 09:04:11;;;;;;;1.42;0.50;;;;;;;20.09;45.38;100609.42;1773917;80;21095;-76
2022/07/16 09:06:38;;;;;;;2.62;0.50;;;;;;;20.04;45.56;100604.47;1773782;80;21119;-76
2022/07/16 09:09:05;;;;;;;4.35;0.50;;;;;;;20.01;45.57;100606.87;1773635;80;21518;-76
2022/07/16 09:11:35;;;;;;;2.12;0.50;;;;;;;19.97;45.47;100605.86;1773937;80;21095;-76
2022/07/16 09:14:11;;;;;;;9.28;0.90;;;;;;;19.96;45.53;100609.50;1773968;80;23750;-75
2022/07/16 09:16:44;;;;;;;3.35;0.60;;;;;;;19.96;45.60;100609.01;1775478;80;21488;-75
2022/07/16 09:19:15;;;;;;;2.95;0.62;;;;;;;19.98;45.46;100610.21;1757619;80;21027;-75
2022/07/16 09:22:14;;;;;;;1.60;0.40;;;;;;;19.93;45.12;100604.41;1776646;79;21049;-74
2022/07/16 09:24:52;;;;;;;5.33;0.78;;;;;;;19.91;45.24;100615.14;1776755;79;20920;-72
2022/07/16 09:27:23;;;;;;;3.58;0.50;;;;;;;19.86;45.19;100618.61;1776926;80;20976;-74
2022/07/16 09:29:54;;;;;;;2.67;0.55;;;;;;;19.77;45.28;100608.64;1776765;78;21016;-75
2022/07/16 09:32:37;;;;;;;1.75;0.40;;;;;;;19.69;45.16;100603.03;1776667;80;21447;-75
2022/07/16 09:35:11;;;;;;;0.90;0.40;;;;;;;19.61;45.32;100612.84;1776659;80;21815;-74
2022/07/16 09:38:00;;;;;;;2.17;0.40;;;;;;;19.54;45.51;100623.08;1775214;80;21016;-74
2022/07/16 09:40:44;;;;;;;2.35;0.70;;;;;;;19.47;45.50;100612.98;1751784;79;21048;-74
2022/07/16 09:43:19;;;;;;;4.83;1.15;;;;;;;19.41;45.71;100626.72;1749763;80;21564;-72
2022/07/16 09:46:05;;;;;;;2.20;0.53;;;;;;;19.34;45.65;100613.86;1751107;79;21124;-73
2022/07/16 09:48:37;;;;;;;4.17;0.72;;;;;;;19.27;45.89;100628.52;1754155;79;21215;-75
2022/07/16 09:51:28;;;;;;;2.55;0.70;;;;;;;19.11;46.39;100643.34;1781770;79;20981;-72
2022/07/16 09:53:56;;;;;;;1.22;0.65;;;;;;;18.91;46.74;100642.05;1760165;79;21044;-74
2022/07/16 09:56:27;;;;;;;2.45;0.80;;;;;;;18.83;47.31;100639.55;1781833;80;21107;-76
2022/07/16 09:58:58;;;;;;;3.33;1.00;;;;;;;18.75;48.20;100641.88;1778919;79;21515;-77
2022/07/16 10:01:25;;;;;;;3.42;0.90;;;;;;;18.67;48.78;100648.98;1781832;79;21281;-74
2022/07/16 10:03:52;;;;;;;3.55;0.98;;;;;;;18.59;49.19;100647.31;1782050;79;21029;-78
2022/07/16 10:06:19;;;;;;;3.52;0.88;;;;;;;18.50;49.75;100656.75;1781887;79;20989;-80
2022/07/16 10:08:46;;;;;;;4.08;1.10;;;;;;;18.40;49.95;100665.80;1782007;80;21083;-77
2022/07/16 10:11:14;;;;;;;4.33;1.12;;;;;;;18.29;50.62;100673.62;1781877;79;21036;-76
2022/07/16 10:13:44;;;;;;;4.75;1.07;;;;;;;18.19;51.81;100683.11;1779574;79;21155;-77
2022/07/16 10:16:13;;;;;;;3.83;1.00;;;;;;;18.02;52.58;100691.67;1779695;79;20988;-74
2022/07/16 10:18:47;;;;;;;6.50;1.10;;;;;;;17.91;53.65;100682.22;1756530;80;21125;-76
2022/07/16 10:21:21;;;;;;;2.35;1.00;;;;;;;17.86;54.07;100682.13;1753905;79;21056;-80
2022/07/16 10:23:52;;;;;;;5.05;1.10;;;;;;;17.88;54.76;100672.28;1756578;80;21024;-79
2022/07/16 10:26:22;;;;;;;4.87;0.98;;;;;;;17.95;55.04;100674.91;1758082;80;21116;-77
2022/07/16 10:28:57;;;;;;;;;;;;;;;18.22;55.99;100672.30;1761193;80;20989;-76
2022/07/16 10:34:38;;;;;;;3.83;0.90;;;;;;;18.98;55.63;100654.42;1745838;80;21106;-85
2022/07/16 10:37:13;;;;;;;1.85;1.00;;;;;;;19.30;54.75;100654.04;1765590;79;21505;-76
2022/07/16 10:40:06;;;;;;;4.90;0.88;;;;;;;19.36;54.38;100662.91;1750893;79;21114;-75
2022/07/16 10:42:34;;;;;;;3.58;1.10;;;;;;;19.31;53.84;100648.59;1746067;80;20957;-76
2022/07/16 10:45:02;;;;;;;4.12;1.27;;;;;;;19.20;53.58;100682.20;1745750;80;21486;-75
2022/07/16 10:47:46;;;;;;;2.85;0.88;;;;;;;19.10;53.37;100661.58;1755171;80;21004;-75
2022/07/16 10:50:20;;;;;;;5.78;0.90;;;;;;;19.05;53.53;100678.79;1747436;79;22618;-75
2022/07/16 10:52:50;;;;;;;1.65;1.00;;;;;;;18.86;53.24;100684.49;1742715;80;21107;-77
2022/07/16 10:55:40;;;;;;;;;;;;;;;18.71;54.14;100695.64;1748287;80;21016;-78
2022/07/16 10:58:06;;;;;;;2.65;1.25;;;;;;;18.42;55.40;100701.52;1745385;80;20330;-77
2022/07/16 11:00:34;;;;;;;1.35;1.20;;;;;;;18.16;56.11;100697.42;1745630;80;21122;-77
2022/07/16 11:03:04;;;;;;;2.40;1.05;;;;;;;17.87;56.72;100697.08;1745748;80;21048;-77
2022/07/16 11:05:32;;;;;;;2.27;1.17;;;;;;;17.67;57.52;100703.12;1745949;80;21172;-76
2022/07/16 11:08:09;;;;;;;5.22;1.35;;;;;;;17.48;58.05;100694.11;1745462;80;21462;-76
2022/07/16 11:10:40;;;;;;;3.12;1.55;;;;;;;17.34;58.80;100704.70;1745606;80;21048;-77
2022/07/16 11:13:16;;;;;;;8.65;2.08;;;;;;;17.22;59.34;100720.02;1745656;80;21521;-83
2022/07/16 11:15:43;;;;;;;3.85;1.82;;;;;;;17.05;60.43;100727.65;1745778;80;20988;-80
2022/07/16 11:18:15;;;;;;;3.85;1.77;;;;;;;16.81;62.03;100730.77;1756820;80;21310;-82
2022/07/16 11:20:39;;;;;;;7.72;2.10;;;;;;;16.54;62.89;100741.58;1745910;80;20969;-79
2022/07/16 11:23:07;;;;;;;3.08;1.87;;;;;;;16.31;64.91;100739.75;1745697;80;21023;-81
2022/07/16 11:25:34;;;;;;;3.72;2.37;;;;;;;16.22;65.86;100737.14;1753954;80;21026;-77
2022/07/16 11:28:03;;;;;;;5.80;2.60;;;;;;;16.06;66.77;100742.41;1747136;80;20981;-78
2022/07/16 11:30:31;;;;;;;2.27;1.90;;;;;;;15.91;67.64;100739.30;1747771;80;21078;-75
2022/07/16 11:32:59;;;;;;;4.95;2.60;;;;;;;15.83;68.72;100748.95;1750768;79;21036;-77
2022/07/16 11:35:26;;;;;;;7.70;2.42;;;;;;;15.76;69.17;100749.35;1750765;79;21315;-78
2022/07/16 11:37:56;;;;;;;4.35;2.05;;;;;;;15.62;69.11;100739.47;1750944;79;20993;-77
2022/07/16 11:40:41;;;;;;;3.62;1.87;;;;;;;15.72;69.57;100738.57;1750754;79;21266;-78